Hovedside
METAR-TAF:

METAR-TAF

Lufthavner :

Ponce, Puerto Rico, USA

breddegrad: 18-01N, lengdegrad: 066-34W, høyde over havet: 8 m

Gjeldene værobservasjon

Denne rapporten ble laget for 28 minutter siden, klokken 14:15 UTC
Vind 12 kt fra Sør-sørøst
Temperatur 32°C
Luftfuktighet 67%
Trykk 1016 hPa
Sikt: 16.1 km
Skyfri himmel

METAR: TJPS 191415Z AUTO 15012KT 10SM CLR 32/25 A3000 RMK AO2 PWINO

Tid: 10:43 (14:43 UTC)

Varsel

Denne rapporten ble laget for 3 timer og 23 minutter siden, klokken 11:20 UTC
Varsel gyldig fra 19. klokken 12 UTC til 20. klokken 12 UTC
Vind kt fra Nord
Sikt: 10 km
Skyfri himmel
Fra 19. klokken 1400 UTC
Vind 12 kt fra Sør-sørøst
Sikt: 10 km
Få skyer i en høyde av 2000 ft
Spredte skyer i en høyde av 6000 ft
Fra 19. klokken 2200 UTC
Vind 6 kt fra Øst
Sikt: 10 km
Få skyer i en høyde av 2000 ft

TAF: TJPS 191120Z 1912/2012 00000KT P6SM SKC FM191400 15012KT P6SM FEW020 SCT060 FM192200 09006KT P6SM FEW020

Værobservasjoner og værvarsel for over 4000 flyplasser (METAR- og TAF-rapporter).

Tilgjengelige stasjoner er representert av de røde og gule prikkene på kartet.

Hold musepekeren over prikken for å se navnet på stasjonen.

Klikk så for å se værobservasjoner og -varsler.

For å forandre kartet kan du klikke på den grønne knappen med svart kryss for å zoome inn, på den grønne knappen med strek for å zoome ut, eller på de grønne pilene for å se tilstøtende kart.


METAR-TAF: